Time;durP1;ratioP1;P1;durP2;ratioP2;P2;SDS_P1;SDS_P2;PMS_P1;PMS_P2;Temp;Humidity;BMP_temperature;BMP_pressure;BME280_temperature;BME280_humidity;BME280_pressure;Samples;Min_cycle;Max_cycle;Signal;HPM_P1;HPM_P2
2022/05/14 00:02:14;;;;;;;5.00;1.30;;;;;;;10.67;51.54;98201.94;5032111;28;20136;-64
2022/05/14 00:04:41;;;;;;;3.05;1.17;;;;;;;10.66;51.35;98207.84;5032060;28;20071;-65
2022/05/14 00:07:08;;;;;;;3.28;1.42;;;;;;;10.67;51.57;98209.47;5031793;28;20580;-65
2022/05/14 00:09:35;;;;;;;9.93;1.63;;;;;;;10.65;51.70;98206.22;5032293;28;20416;-66
2022/05/14 00:15:05;;;;;;;5.35;1.50;;;;;;;10.59;51.54;98207.69;4971111;28;20530;-65
2022/05/14 00:17:33;;;;;;;4.97;1.50;;;;;;;10.56;52.07;98208.41;5020434;28;20141;-65
2022/05/14 00:20:00;;;;;;;3.22;1.35;;;;;;;10.56;51.53;98202.84;5031749;28;20068;-65
2022/05/14 00:22:28;;;;;;;5.13;1.30;;;;;;;10.54;51.96;98208.00;5032195;28;20053;-65
2022/05/14 00:24:55;;;;;;;13.68;1.20;;;;;;;10.52;52.27;98207.53;5032833;28;20440;-65
2022/05/14 00:27:22;;;;;;;2.78;1.10;;;;;;;10.47;52.27;98205.03;5031937;28;20073;-65
2022/05/14 00:29:50;;;;;;;6.35;1.27;;;;;;;10.48;52.35;98212.22;5030913;28;20045;-65
2022/05/14 00:32:18;;;;;;;3.50;1.10;;;;;;;10.49;52.16;98202.72;5032001;28;20096;-65
2022/05/14 00:34:45;;;;;;;3.60;1.30;;;;;;;10.51;52.26;98208.72;5035074;28;20140;-65
2022/05/14 00:37:12;;;;;;;4.82;1.52;;;;;;;10.50;52.47;98205.13;5035620;28;20084;-64
2022/05/14 00:39:38;;;;;;;3.30;1.35;;;;;;;10.46;52.66;98209.81;5035659;28;20095;-69
2022/05/14 00:42:06;;;;;;;5.93;1.08;;;;;;;10.42;51.87;98197.78;5035506;28;20041;-71
2022/05/14 00:44:33;;;;;;;4.18;1.65;;;;;;;10.42;52.64;98202.56;5036174;28;20160;-71
2022/05/14 00:47:02;;;;;;;3.92;1.60;;;;;;;10.41;52.46;98203.72;5035670;28;20041;-70
2022/05/14 00:49:33;;;;;;;7.28;1.27;;;;;;;10.41;52.55;98203.72;5035434;28;20515;-70
2022/05/14 00:52:01;;;;;;;10.85;2.03;;;;;;;10.33;52.52;98201.97;5035220;28;20053;-71
2022/05/14 00:54:36;;;;;;;3.60;1.30;;;;;;;10.34;52.73;98190.50;5035542;28;20508;-71
2022/05/14 00:57:08;;;;;;;3.20;1.30;;;;;;;10.37;52.79;98191.72;5035353;28;20490;-70
2022/05/14 00:59:37;;;;;;;4.38;1.10;;;;;;;10.33;52.51;98190.84;5035376;28;20049;-70
2022/05/14 01:02:07;;;;;;;3.40;1.15;;;;;;;10.32;52.95;98192.00;5035378;28;20058;-71
2022/05/14 01:04:35;;;;;;;3.90;1.17;;;;;;;10.29;52.65;98193.53;5035280;28;20525;-70
2022/05/14 01:07:11;;;;;;;2.65;1.30;;;;;;;10.27;53.08;98183.97;5034742;28;20148;-70
2022/05/14 01:09:41;;;;;;;2.35;1.00;;;;;;;10.23;53.06;98195.00;5035673;28;20145;-70
2022/05/14 01:12:09;;;;;;;;;;;;;;;10.14;53.74;98190.81;5035485;28;20519;-70
2022/05/14 01:14:36;;;;;;;5.63;1.20;;;;;;;10.14;53.56;98190.81;5035347;28;20028;-70
2022/05/14 01:17:03;;;;;;;2.40;1.35;;;;;;;10.17;53.28;98190.09;5035551;28;20452;-70
2022/05/14 01:19:30;;;;;;;4.75;1.08;;;;;;;10.23;53.49;98191.41;5027099;28;20539;-69
2022/05/14 01:22:13;;;;;;;5.78;1.20;;;;;;;10.26;53.13;98193.47;5015120;28;20046;-71
2022/05/14 01:27:32;;;;;;;3.22;1.10;;;;;;;10.25;53.72;98181.53;5014939;28;20479;-70
2022/05/14 01:30:00;;;;;;;2.20;0.77;;;;;;;10.27;53.35;98181.97;5015005;28;20057;-70
2022/05/14 01:32:28;;;;;;;1.50;1.00;;;;;;;10.24;53.32;98185.47;5014938;28;20062;-70
2022/05/14 01:34:55;;;;;;;7.22;1.50;;;;;;;10.26;53.49;98182.34;5014649;28;20516;-71
2022/05/14 01:37:24;;;;;;;2.28;0.98;;;;;;;10.28;53.49;98185.56;5014843;28;20046;-70
2022/05/14 01:39:52;;;;;;;3.42;1.17;;;;;;;10.28;53.31;98191.94;5014596;28;20060;-71
2022/05/14 01:42:19;;;;;;;2.72;0.93;;;;;;;10.28;53.48;98185.56;5014830;28;20058;-70
2022/05/14 01:44:46;;;;;;;2.53;1.00;;;;;;;10.28;53.01;98183.59;4996757;28;20052;-71
2022/05/14 01:47:13;;;;;;;4.45;1.48;;;;;;;10.28;53.60;98183.59;5014615;28;20445;-70
2022/05/14 01:49:40;;;;;;;2.53;1.13;;;;;;;10.27;53.01;98181.97;5014872;28;20073;-70
2022/05/14 01:52:08;;;;;;;2.58;1.08;;;;;;;10.24;53.38;98185.47;4996643;28;20073;-70
2022/05/14 01:54:35;;;;;;;9.32;1.48;;;;;;;10.23;53.92;98195.00;5044565;28;20046;-70
2022/05/14 01:57:02;;;;;;;2.83;1.20;;;;;;;10.23;54.08;98183.88;5053186;28;20135;-70
2022/05/14 01:59:29;;;;;;;5.78;1.00;;;;;;;10.25;53.45;98189.88;5054067;28;20147;-69
2022/05/14 02:01:56;;;;;;;4.15;1.23;;;;;;;10.30;53.28;98188.81;5054091;28;20114;-70
2022/05/14 02:04:23;;;;;;;1.73;1.00;;;;;;;10.33;53.28;98196.41;5053949;28;20084;-70
2022/05/14 02:06:50;;;;;;;3.83;1.10;;;;;;;10.34;53.75;98195.25;5053810;28;20053;-69
2022/05/14 02:09:19;;;;;;;4.50;0.98;;;;;;;10.31;53.62;98185.66;5032988;28;20084;-70
2022/05/14 02:11:46;;;;;;;2.92;1.25;;;;;;;10.36;53.20;98192.91;5053790;28;20057;-70
2022/05/14 02:14:13;;;;;;;3.38;1.60;;;;;;;10.41;53.54;98196.19;5054017;28;20044;-71
2022/05/14 02:16:40;;;;;;;4.18;1.20;;;;;;;10.43;53.60;98195.84;5054568;28;20484;-70
2022/05/14 02:19:07;;;;;;;6.22;1.75;;;;;;;10.48;53.56;98195.56;5049290;28;20056;-71
2022/05/14 02:21:35;;;;;;;2.97;1.20;;;;;;;10.52;53.14;98191.69;5033711;28;20132;-69
2022/05/14 02:24:03;;;;;;;3.17;0.93;;;;;;;10.47;53.15;98182.81;5033754;28;20149;-70
2022/05/14 02:26:30;;;;;;;5.53;1.30;;;;;;;10.48;53.45;98184.44;5016173;28;20053;-70
2022/05/14 02:28:57;;;;;;;3.03;0.90;;;;;;;10.51;53.30;98194.81;5033355;28;20136;-71
2022/05/14 02:31:24;;;;;;;4.55;0.93;;;;;;;10.55;53.22;98192.91;5033763;28;20056;-71
2022/05/14 02:33:51;;;;;;;3.22;1.20;;;;;;;10.55;52.93;98198.47;5016170;28;20048;-69
2022/05/14 02:36:19;;;;;;;3.30;1.27;;;;;;;10.55;53.36;98209.59;5033490;28;20464;-70
2022/05/14 02:38:46;;;;;;;4.80;1.13;;;;;;;10.55;53.37;98207.63;5033185;28;20050;-71
2022/05/14 02:41:14;;;;;;;3.22;1.17;;;;;;;10.59;53.33;98207.69;5033438;28;20045;-70
2022/05/14 02:43:42;;;;;;;1.83;0.90;;;;;;;10.62;53.47;98207.78;5033522;28;20046;-70
2022/05/14 02:46:12;;;;;;;3.50;1.13;;;;;;;10.65;53.84;98206.22;5033081;28;20156;-71
2022/05/14 02:48:39;;;;;;;6.57;0.80;;;;;;;10.65;53.22;98207.03;5033307;28;20045;-70
2022/05/14 02:51:07;;;;;;;2.38;1.05;;;;;;;10.62;53.07;98198.63;5044385;28;20136;-73
2022/05/14 02:53:34;;;;;;;2.38;1.08;;;;;;;10.62;52.87;98206.97;5044058;28;20053;-70
2022/05/14 02:56:01;;;;;;;5.78;1.30;;;;;;;10.71;53.12;98205.56;5032680;28;20420;-70
2022/05/14 03:01:14;;;;;;;1.05;0.75;;;;;;;10.87;52.59;98209.06;5032792;28;20061;-70
2022/05/14 03:03:42;;;;;;;3.55;1.05;;;;;;;10.97;52.59;98213.25;5031942;28;20063;-69
2022/05/14 03:06:09;;;;;;;2.05;0.82;;;;;;;10.96;52.73;98203.31;5032940;28;20140;-69
2022/05/14 03:08:37;;;;;;;4.13;1.00;;;;;;;11.01;52.28;98203.00;5031484;28;20182;-70
2022/05/14 03:11:04;;;;;;;3.75;1.23;;;;;;;11.07;52.39;98201.50;5049310;28;20143;-72
2022/05/14 03:13:30;;;;;;;3.30;1.00;;;;;;;11.11;52.16;98203.19;5052790;28;20135;-70
2022/05/14 03:15:58;;;;;;;9.30;1.20;;;;;;;11.16;51.91;98202.09;5052893;28;20080;-70
2022/05/14 03:18:25;;;;;;;2.60;1.00;;;;;;;11.25;52.22;98201.88;5052910;28;20051;-69
2022/05/14 03:20:52;;;;;;;3.17;0.80;;;;;;;11.29;52.40;98208.31;5052728;28;20114;-69
2022/05/14 03:23:19;;;;;;;1.08;0.70;;;;;;;11.36;52.05;98198.09;5052728;28;20511;-70
2022/05/14 03:25:46;;;;;;;1.65;0.93;;;;;;;11.56;51.18;98209.97;5040119;28;20053;-69
2022/05/14 03:28:12;;;;;;;3.28;0.90;;;;;;;11.65;50.85;98197.47;5032753;28;20144;-70
2022/05/14 03:30:39;;;;;;;3.58;0.90;;;;;;;11.84;51.00;98205.72;5032796;28;20056;-70
2022/05/14 03:33:06;;;;;;;3.05;1.10;;;;;;;12.01;50.58;98212.75;5032645;28;20504;-69
2022/05/14 03:35:36;;;;;;;2.20;0.90;;;;;;;12.18;50.28;98227.00;5032967;28;20467;-70
2022/05/14 03:38:03;;;;;;;2.90;0.90;;;;;;;12.21;50.03;98220.66;5032906;28;20049;-70
2022/05/14 03:40:30;;;;;;;4.57;0.80;;;;;;;12.22;49.82;98229.81;5015326;28;20136;-70
2022/05/14 03:42:57;;;;;;;1.92;0.88;;;;;;;12.25;49.59;98224.31;5032370;28;20048;-70
2022/05/14 03:45:24;;;;;;;2.38;0.80;;;;;;;12.27;49.66;98226.72;5032573;28;20103;-69
2022/05/14 03:47:51;;;;;;;2.35;0.75;;;;;;;12.26;49.92;98220.31;5032304;28;20049;-70
2022/05/14 03:50:18;;;;;;;2.58;0.80;;;;;;;12.27;49.57;98221.13;5032404;28;20501;-70
2022/05/14 03:52:45;;;;;;;3.25;0.90;;;;;;;12.33;49.27;98226.03;5032193;28;20052;-70
2022/05/14 03:55:12;;;;;;;3.60;1.00;;;;;;;12.46;49.13;98219.03;5032501;28;20063;-70
2022/05/14 03:57:40;;;;;;;1.83;0.80;;;;;;;12.52;49.03;98216.72;5032095;28;20045;-69
2022/05/14 04:00:11;;;;;;;7.97;1.67;;;;;;;12.57;48.76;98216.38;5032662;28;20141;-71
2022/05/14 04:02:38;;;;;;;1.02;0.70;;;;;;;12.62;48.75;98216.06;5032302;28;20053;-71
2022/05/14 04:05:08;;;;;;;1.15;0.68;;;;;;;12.65;48.52;98216.09;5032555;28;20471;-70
2022/05/14 04:07:36;;;;;;;2.10;0.70;;;;;;;12.72;48.26;98220.97;5033483;28;20058;-70
2022/05/14 04:10:04;;;;;;;1.77;0.70;;;;;;;12.86;48.20;98221.16;5025792;28;20045;-69
2022/05/14 04:12:31;;;;;;;2.08;0.95;;;;;;;12.93;48.05;98219.28;5056688;28;20115;-69
2022/05/14 04:14:58;;;;;;;2.40;0.70;;;;;;;13.06;47.94;98219.06;5056460;28;20056;-70
2022/05/14 04:17:25;;;;;;;4.13;1.67;;;;;;;13.26;47.31;98217.69;5038558;28;20516;-70
2022/05/14 04:19:52;;;;;;;3.28;0.90;;;;;;;13.45;46.90;98215.50;5035683;28;20050;-70
2022/05/14 04:22:19;;;;;;;2.85;1.10;;;;;;;13.52;46.56;98206.38;5056064;28;20443;-71
2022/05/14 04:24:46;;;;;;;2.95;0.95;;;;;;;13.60;46.62;98208.06;5051776;28;20052;-71
2022/05/14 04:27:13;;;;;;;5.25;1.02;;;;;;;13.65;46.14;98208.50;5036254;28;20054;-75
2022/05/14 04:29:41;;;;;;;2.30;0.85;;;;;;;13.66;46.15;98206.53;5035964;28;20132;-75
2022/05/14 04:32:08;;;;;;;2.72;1.00;;;;;;;13.71;46.23;98201.38;5035984;28;20056;-74
2022/05/14 04:34:39;;;;;;;1.75;0.70;;;;;;;13.73;45.62;98195.41;5036804;28;20065;-74
2022/05/14 04:37:07;;;;;;;3.72;0.80;;;;;;;13.73;45.87;98198.19;5035925;28;20054;-74
2022/05/14 04:39:34;;;;;;;1.35;0.70;;;;;;;13.78;46.01;98200.63;5035757;28;20466;-74
2022/05/14 04:42:03;;;;;;;3.55;1.25;;;;;;;13.65;46.10;98186.16;5035651;28;20136;-74
2022/05/14 04:44:35;;;;;;;2.40;0.82;;;;;;;13.65;46.26;98207.72;5036033;28;20063;-75
2022/05/14 04:47:02;;;;;;;3.53;0.68;;;;;;;13.61;46.37;98206.84;5035864;28;20052;-74
2022/05/14 04:49:29;;;;;;;3.30;0.80;;;;;;;13.53;46.09;98205.22;5035615;28;20643;-75
2022/05/14 04:51:57;;;;;;;2.83;0.70;;;;;;;13.51;46.28;98202.00;5035300;28;20144;-74
2022/05/14 04:54:24;;;;;;;7.05;0.90;;;;;;;13.82;46.03;98201.47;5035635;28;20049;-74
2022/05/14 04:56:51;;;;;;;7.22;1.10;;;;;;;14.02;45.45;98200.84;5035370;28;20444;-74
2022/05/14 04:59:18;;;;;;;2.25;1.00;;;;;;;14.21;44.88;98202.59;5035446;28;20049;-75
2022/05/14 05:04:32;;;;;;;6.75;0.93;;;;;;;14.55;44.35;98207.66;5035450;28;20397;-74
2022/05/14 05:07:00;;;;;;;3.25;0.95;;;;;;;14.82;43.55;98198.97;5035441;28;20563;-75
2022/05/14 05:09:27;;;;;;;3.45;1.10;;;;;;;14.73;43.67;98196.53;5038416;28;20064;-75
2022/05/14 05:11:54;;;;;;;1.70;0.70;;;;;;;14.65;43.74;98195.69;5055235;28;20053;-74
2022/05/14 05:14:21;;;;;;;1.27;0.68;;;;;;;14.61;43.62;98205.28;5040729;28;20080;-76
2022/05/14 05:16:48;;;;;;;2.75;0.85;;;;;;;14.64;44.02;98196.91;5015094;28;20053;-75
2022/05/14 05:19:15;;;;;;;3.17;1.10;;;;;;;14.83;43.53;98187.38;5014827;28;20045;-75
2022/05/14 05:21:42;;;;;;;1.58;0.88;;;;;;;15.12;43.09;98197.50;5051291;28;20055;-74
2022/05/14 05:24:10;;;;;;;3.78;1.25;;;;;;;15.43;42.50;98196.03;5054927;28;20073;-75
2022/05/14 05:26:38;;;;;;;1.92;0.80;;;;;;;15.70;42.04;98195.28;5054272;28;20045;-74
2022/05/14 05:29:05;;;;;;;6.30;0.70;;;;;;;15.73;42.12;98190.84;5054534;28;20598;-74
2022/05/14 05:31:34;;;;;;;2.40;1.00;;;;;;;15.99;42.12;98191.25;5054420;28;20135;-74
2022/05/14 05:34:02;;;;;;;2.03;0.90;;;;;;;16.23;41.54;98179.22;5054833;28;20485;-74
2022/05/14 05:36:30;;;;;;;2.28;0.82;;;;;;;16.09;41.15;98184.03;5036976;28;20068;-74
2022/05/14 05:38:58;;;;;;;3.05;0.90;;;;;;;16.17;40.46;98185.66;5054641;28;20060;-74
2022/05/14 05:41:25;;;;;;;1.20;0.82;;;;;;;16.24;40.87;98192.06;5054598;28;20056;-73
2022/05/14 05:43:52;;;;;;;1.92;0.75;;;;;;;16.46;40.33;98192.84;5054589;28;20511;-74
2022/05/14 05:46:19;;;;;;;3.40;0.85;;;;;;;16.52;40.17;98196.84;5054447;28;20132;-74
2022/05/14 05:48:46;;;;;;;1.60;0.70;;;;;;;16.93;39.19;98186.69;5054076;28;20048;-74
2022/05/14 05:51:13;;;;;;;2.55;0.95;;;;;;;17.64;37.79;98190.75;5039810;28;20049;-73
2022/05/14 05:59:12;;;;;;;2.90;0.90;;;;;;;19.33;33.41;98181.44;5034253;28;20166;-73
2022/05/14 06:01:41;;;;;;;2.45;0.60;;;;;;;19.37;33.37;98184.22;5034189;28;20049;-74
2022/05/14 06:04:08;;;;;;;1.80;0.73;;;;;;;18.91;34.22;98187.59;5027025;28;20072;-73
2022/05/14 06:06:37;;;;;;;2.20;0.80;;;;;;;19.98;32.80;98192.16;5034113;28;20413;-75
2022/05/14 06:09:04;;;;;;;3.08;0.80;;;;;;;21.70;29.80;98190.88;5034466;28;20086;-75
2022/05/14 06:11:31;;;;;;;1.63;0.80;;;;;;;21.60;29.71;98184.25;5033959;28;20053;-73
2022/05/14 06:13:58;;;;;;;3.97;0.90;;;;;;;23.28;27.55;98179.13;5034474;28;20551;-74
2022/05/14 06:16:26;;;;;;;1.40;0.73;;;;;;;24.65;26.04;98179.59;5033943;28;20560;-74
2022/05/14 06:18:53;;;;;;;2.92;0.80;;;;;;;24.55;25.90;98175.03;5033914;28;20103;-73
2022/05/14 06:21:20;;;;;;;4.50;0.80;;;;;;;25.38;24.39;98176.13;5033901;28;20075;-73
2022/05/14 06:23:47;;;;;;;5.50;1.10;;;;;;;24.64;25.08;98173.09;5033939;28;20053;-73
2022/05/14 06:26:14;;;;;;;1.70;0.70;;;;;;;23.44;26.41;98163.25;5033977;28;20051;-75
2022/05/14 06:28:41;;;;;;;1.92;0.85;;;;;;;22.91;26.79;98173.25;5033561;28;20081;-75
2022/05/14 06:31:08;;;;;;;4.25;0.88;;;;;;;23.06;26.82;98171.59;5033641;28;20077;-74
2022/05/14 06:33:35;;;;;;;2.17;1.00;;;;;;;22.69;27.04;98158.91;5033953;28;20528;-65
2022/05/14 06:36:02;;;;;;;1.52;0.90;;;;;;;21.68;28.35;98162.22;5033592;28;20077;-64
2022/05/14 06:38:29;;;;;;;3.15;0.93;;;;;;;20.87;29.33;98163.94;5033127;28;20045;-65
2022/05/14 06:41:03;;;;;;;6.63;1.17;;;;;;;20.22;30.02;98172.47;5033725;28;20053;-64
2022/05/14 06:43:30;;;;;;;3.40;0.95;;;;;;;20.02;30.16;98167.50;5033374;28;20056;-65
2022/05/14 06:45:57;;;;;;;1.30;0.60;;;;;;;21.10;28.83;98161.09;5033275;28;20052;-65
2022/05/14 06:48:24;;;;;;;1.52;0.75;;;;;;;24.62;24.82;98157.72;5033215;28;20136;-64
2022/05/14 06:50:51;;;;;;;2.58;0.80;;;;;;;26.62;22.38;98161.31;5011432;28;20421;-64
2022/05/14 06:53:20;;;;;;;3.17;0.93;;;;;;;26.76;22.20;98160.69;5013232;28;20478;-65
2022/05/14 06:55:51;;;;;;;7.20;2.35;;;;;;;27.74;20.71;98144.75;5013626;28;20054;-65
2022/05/14 06:58:22;;;;;;;3.25;0.90;;;;;;;29.90;18.41;98150.22;5013173;28;20420;-65
2022/05/14 07:00:50;;;;;;;2.38;1.00;;;;;;;32.70;15.73;98146.19;5013392;28;20081;-65
2022/05/14 07:08:50;;;;;;;19.65;1.73;;;;;;;34.78;14.22;98149.19;5012998;28;20082;-65
2022/05/14 07:11:17;;;;;;;8.20;1.40;;;;;;;35.39;13.63;98135.28;5048129;28;20227;-65
2022/05/14 07:13:44;;;;;;;2.72;1.17;;;;;;;35.20;13.89;98140.09;5053294;28;20055;-64
2022/05/14 07:16:14;;;;;;;2.45;0.85;;;;;;;36.47;12.20;98136.34;5052724;28;20049;-64
2022/05/14 07:18:41;;;;;;;5.07;1.02;;;;;;;36.85;12.00;98140.16;5052964;28;20051;-64
2022/05/14 07:21:08;;;;;;;15.02;4.75;;;;;;;39.65;10.80;98149.16;5052719;28;20064;-64
2022/05/14 07:23:35;;;;;;;2.15;1.05;;;;;;;41.33;9.48;98124.63;5052785;28;20075;-63
2022/05/14 07:26:03;;;;;;;3.10;0.85;;;;;;;40.57;9.63;98145.84;5051576;28;20504;-65
2022/05/14 07:28:30;;;;;;;;;;;;;;;37.78;10.86;98133.13;5052950;28;20059;-64
2022/05/14 07:31:01;;;;;;;2.90;0.73;;;;;;;34.41;12.90;98131.38;5052495;28;19928;-65
2022/05/14 07:33:29;;;;;;;7.50;1.30;;;;;;;33.80;13.98;98134.25;5052602;28;20084;-64
2022/05/14 07:36:00;;;;;;;2.35;1.05;;;;;;;34.33;13.21;98136.09;5052647;28;20045;-65
2022/05/14 07:38:28;;;;;;;4.78;0.70;;;;;;;30.24;15.57;98137.22;5052257;28;20052;-65
2022/05/14 07:40:55;;;;;;;1.70;0.80;;;;;;;30.32;15.65;98138.38;5034315;28;20053;-64
2022/05/14 07:43:26;;;;;;;13.32;5.28;;;;;;;28.48;17.17;98118.25;5032358;28;20460;-65
2022/05/14 07:45:59;;;;;;;5.20;1.27;;;;;;;28.41;16.89;98130.00;5032663;28;20136;-65
2022/05/14 07:48:31;;;;;;;1.98;0.85;;;;;;;32.81;14.09;98128.16;5032224;28;20041;-65
2022/05/14 07:51:00;;;;;;;8.15;1.00;;;;;;;35.10;11.44;98118.56;5032165;28;20416;-64
2022/05/14 07:53:30;;;;;;;;;;;;;;;35.24;11.10;98119.56;5032899;28;20149;-64
2022/05/14 07:55:58;;;;;;;4.20;0.90;;;;;;;37.95;10.25;98138.69;5032398;28;20004;-64
2022/05/14 07:58:25;;;;;;;2.40;1.08;;;;;;;39.11;8.68;98128.66;5032055;28;20049;-64
2022/05/14 08:00:53;;;;;;;0.88;0.57;;;;;;;37.66;9.23;98131.75;5032356;28;20390;-66
2022/05/14 08:03:23;;;;;;;4.00;0.88;;;;;;;35.27;10.62;98127.16;5032369;28;20053;-64
2022/05/14 08:05:51;;;;;;;4.45;0.85;;;;;;;32.81;11.91;98126.06;5015261;28;20049;-64
2022/05/14 08:08:18;;;;;;;3.38;0.80;;;;;;;32.24;12.84;98119.69;5031938;28;20487;-64
2022/05/14 08:10:45;;;;;;;2.72;0.65;;;;;;;28.95;15.20;98109.59;5045208;28;20059;-64
2022/05/14 08:13:16;;;;;;;1.85;1.10;;;;;;;29.98;14.54;98114.91;5052065;28;20078;-64
2022/05/14 08:15:45;;;;;;;7.70;1.00;;;;;;;30.68;13.85;98123.50;5052161;28;20060;-64
2022/05/14 08:18:13;;;;;;;1.48;0.80;;;;;;;30.56;14.18;98118.91;5052394;28;20464;-64
2022/05/14 08:20:41;;;;;;;2.97;0.80;;;;;;;27.44;16.46;98113.59;5052489;28;20057;-66
2022/05/14 08:25:57;;;;;;;6.82;1.00;;;;;;;23.14;21.18;98122.75;5041650;28;20073;-66
2022/05/14 08:28:24;;;;;;;1.98;0.90;;;;;;;21.84;22.82;98122.63;5031867;28;20128;-67
2022/05/14 08:30:52;;;;;;;3.72;0.98;;;;;;;21.29;23.58;98117.03;5014343;28;20048;-67
2022/05/14 08:33:19;;;;;;;1.55;0.85;;;;;;;21.62;22.97;98115.88;5032327;28;20091;-65
2022/05/14 08:35:47;;;;;;;6.78;0.90;;;;;;;21.01;23.64;98129.75;5032126;28;20083;-65
2022/05/14 08:38:17;;;;;;;3.60;0.80;;;;;;;20.19;24.82;98130.97;5031986;28;20136;-65
2022/05/14 08:40:55;;;;;;;;;;;;;;;19.29;26.11;98121.50;5032499;28;20052;-66
2022/05/14 08:43:26;;;;;;;1.35;0.80;;;;;;;18.71;26.98;98123.84;5031821;28;19950;-66
2022/05/14 08:45:53;;;;;;;2.50;1.05;;;;;;;21.53;24.23;98127.00;5031704;28;20054;-66
2022/05/14 08:48:39;;;;;;;1.80;0.80;;;;;;;21.78;23.26;98132.88;5031660;28;20042;-66
2022/05/14 08:51:13;;;;;;;1.42;0.50;;;;;;;20.28;24.82;98114.25;5031748;28;20067;-66
2022/05/14 08:53:43;;;;;;;2.63;1.17;;;;;;;19.27;26.06;98131.59;5032253;28;20140;-66
2022/05/14 08:56:22;;;;;;;3.55;1.00;;;;;;;18.51;27.49;98132.13;5035343;28;20526;-66
2022/05/14 08:58:58;;;;;;;4.05;0.85;;;;;;;18.11;28.19;98124.44;5035397;28;20051;-66
2022/05/14 09:01:28;;;;;;;2.65;0.80;;;;;;;17.77;29.06;98137.63;5035344;28;20564;-65
2022/05/14 09:03:55;;;;;;;6.00;1.08;;;;;;;17.55;29.41;98136.97;5035458;28;20051;-66
2022/05/14 09:06:22;;;;;;;2.53;1.08;;;;;;;17.60;29.46;98132.94;5035349;28;20508;-66
2022/05/14 09:08:49;;;;;;;4.00;1.20;;;;;;;18.48;28.68;98132.97;5034765;28;20064;-66
2022/05/14 09:11:28;;;;;;;3.60;0.95;;;;;;;24.52;21.63;98127.63;5039162;28;20040;-66
2022/05/14 09:13:58;;;;;;;6.60;1.15;;;;;;;24.20;22.08;98131.56;5055444;28;20059;-66
2022/05/14 09:16:37;;;;;;;1.83;0.80;;;;;;;22.12;23.98;98130.44;5054767;28;20061;-66
2022/05/14 09:19:15;;;;;;;4.38;1.05;;;;;;;20.56;25.83;98119.34;5024635;28;20505;-66
2022/05/14 09:21:55;;;;;;;1.63;0.70;;;;;;;19.51;27.28;98128.41;5015087;28;20107;-66
2022/05/14 09:24:26;;;;;;;2.60;0.90;;;;;;;18.96;28.05;98130.78;5015246;28;20454;-66
2022/05/14 09:26:56;;;;;;;2.20;1.10;;;;;;;19.08;28.31;98133.03;5051002;28;20052;-66
2022/05/14 09:29:32;;;;;;;5.85;1.40;;;;;;;25.67;21.10;98113.16;5054787;28;20072;-65
2022/05/14 09:32:03;;;;;;;3.20;0.98;;;;;;;29.63;16.55;98111.19;5054587;28;20412;-66
2022/05/14 09:34:34;;;;;;;5.30;1.55;;;;;;;27.39;18.56;98095.03;5054686;28;20053;-66
2022/05/14 09:37:09;;;;;;;2.10;0.80;;;;;;;24.98;20.99;98106.84;5054329;28;20045;-66
2022/05/14 09:39:38;;;;;;;6.43;0.90;;;;;;;23.12;22.79;98091.19;5054411;28;20099;-66
2022/05/14 09:42:06;;;;;;;5.55;1.23;;;;;;;21.75;24.06;98088.47;5054277;28;20420;-66
2022/05/14 09:44:49;;;;;;;1.27;0.80;;;;;;;21.57;24.32;98094.56;5054469;28;20075;-66
2022/05/14 09:47:28;;;;;;;9.60;1.30;;;;;;;21.18;25.06;98094.66;5054382;28;20053;-67
2022/05/14 09:50:03;;;;;;;5.43;1.25;;;;;;;20.54;26.42;98099.22;5054387;28;20084;-66
2022/05/14 09:52:33;;;;;;;10.13;1.10;;;;;;;20.28;27.09;98094.47;5054276;28;20049;-66
2022/05/14 09:55:05;;;;;;;2.15;1.05;;;;;;;20.48;26.80;98098.13;5054096;28;20083;-67
2022/05/14 09:57:55;;;;;;;4.88;1.20;;;;;;;20.50;26.52;98092.84;5053933;28;20447;-65
2022/05/14 10:01:03;;;;;;;3.95;1.05;;;;;;;20.08;27.05;98091.59;5054225;28;20124;-66
2022/05/14 10:03:42;;;;;;;6.05;1.52;;;;;;;19.61;27.80;98101.25;5052696;28;20088;-67
2022/05/14 10:06:18;;;;;;;4.30;1.17;;;;;;;18.93;29.06;98100.63;5053849;28;20142;-66
2022/05/14 10:09:02;;;;;;;15.63;1.73;;;;;;;18.11;32.42;98107.56;5033996;28;20127;-66
2022/05/14 10:11:33;;;;;;;3.58;1.33;;;;;;;17.47;34.82;98104.50;5039883;28;20401;-66
2022/05/14 10:14:22;;;;;;;2.47;0.98;;;;;;;16.82;35.53;98115.72;5053810;28;20381;-66
2022/05/14 10:16:58;;;;;;;2.38;0.98;;;;;;;16.63;35.71;98107.78;5050665;28;20381;-66
2022/05/14 10:19:28;;;;;;;4.68;0.77;;;;;;;16.86;35.43;98113.69;5053825;28;20505;-64
2022/05/14 10:21:57;;;;;;;3.25;0.80;;;;;;;17.68;34.13;98101.53;5054122;28;20132;-66
2022/05/14 10:27:50;;;;;;;4.50;0.95;;;;;;;18.29;33.63;98085.66;5013905;28;20428;-70
2022/05/14 10:30:25;;;;;;;4.53;0.90;;;;;;;18.39;33.41;98084.78;5013879;28;20585;-66
2022/05/14 10:33:05;;;;;;;6.10;1.05;;;;;;;18.43;33.08;98070.66;5013661;28;20058;-66
2022/05/14 10:36:00;;;;;;;2.47;0.95;;;;;;;18.46;33.05;98067.81;5014234;28;20049;-67
2022/05/14 10:38:47;;;;;;;4.28;1.05;;;;;;;18.56;33.14;98063.28;5012392;28;20137;-66
2022/05/14 10:41:27;;;;;;;5.45;1.15;;;;;;;18.33;31.94;98072.38;5013514;28;20084;-65
2022/05/14 10:44:01;;;;;;;2.75;1.20;;;;;;;18.07;31.85;98064.59;5013871;28;20045;-65
2022/05/14 10:46:32;;;;;;;1.00;0.73;;;;;;;18.05;31.60;98069.84;5013598;28;20445;-66
2022/05/14 10:49:17;;;;;;;2.65;1.02;;;;;;;17.95;30.92;98076.38;5013627;28;20049;-65
2022/05/14 10:51:46;;;;;;;3.33;1.45;;;;;;;17.89;30.68;98075.22;5013541;28;20504;-66
2022/05/14 10:54:19;;;;;;;2.85;1.20;;;;;;;17.89;31.28;98072.41;5013784;28;20104;-67
2022/05/14 10:57:25;;;;;;;5.32;1.08;;;;;;;17.88;31.25;98073.63;5004178;28;20080;-67
2022/05/14 11:00:01;;;;;;;3.80;0.80;;;;;;;17.61;31.54;98070.66;5033340;28;20052;-65
2022/05/14 11:02:38;;;;;;;5.57;1.00;;;;;;;17.52;31.57;98078.75;5015096;28;20114;-66
2022/05/14 11:05:06;;;;;;;4.95;0.70;;;;;;;17.31;31.71;98061.22;5033198;28;20061;-66
2022/05/14 11:07:42;;;;;;;2.78;0.90;;;;;;;17.11;32.10;98072.19;5015594;28;20424;-66
2022/05/14 11:10:12;;;;;;;4.20;0.68;;;;;;;16.95;32.25;98071.09;5015250;28;20567;-66
2022/05/14 11:12:42;;;;;;;1.40;0.73;;;;;;;17.06;31.91;98071.84;5048845;28;20114;-66
2022/05/14 11:15:25;;;;;;;8.20;1.10;;;;;;;17.39;31.11;98066.41;5045991;28;20485;-66
2022/05/14 11:18:13;;;;;;;7.18;0.93;;;;;;;17.51;31.25;98053.88;5032056;28;20049;-66
2022/05/14 11:20:54;;;;;;;1.73;0.55;;;;;;;17.58;31.14;98054.59;5014947;28;20421;-66
2022/05/14 11:23:23;;;;;;;3.55;1.30;;;;;;;17.78;30.48;98049.22;5032643;28;20057;-66
2022/05/14 11:26:04;;;;;;;3.22;0.88;;;;;;;18.12;29.89;98047.25;5032876;28;20055;-66
2022/05/14 11:28:32;;;;;;;4.25;1.02;;;;;;;18.05;29.88;98041.69;5032466;28;20143;-66
2022/05/14 11:31:21;;;;;;;3.13;0.80;;;;;;;18.15;29.51;98052.06;5032444;28;20045;-66
2022/05/14 11:33:49;;;;;;;2.23;0.70;;;;;;;18.02;29.49;98048.97;5033016;28;20057;-66
2022/05/14 11:36:21;;;;;;;3.72;0.95;;;;;;;18.09;29.34;98042.47;5032762;28;20298;-66
2022/05/14 11:39:06;;;;;;;5.63;1.58;;;;;;;18.17;28.66;98035.53;5032664;28;20053;-65
2022/05/14 11:41:38;;;;;;;6.95;0.90;;;;;;;18.06;28.78;98051.75;5032594;28;20084;-65
2022/05/14 11:44:06;;;;;;;1.33;0.73;;;;;;;18.08;29.00;98040.84;5032684;28;20053;-66
2022/05/14 11:46:39;;;;;;;2.83;1.10;;;;;;;17.97;28.78;98045.81;5032806;28;20080;-66
2022/05/14 11:49:12;;;;;;;4.45;0.90;;;;;;;18.04;29.06;98040.09;5032387;28;20132;-65
2022/05/14 11:52:02;;;;;;;2.33;0.95;;;;;;;18.21;29.04;98039.91;5032679;28;20155;-65
2022/05/14 11:54:40;;;;;;;9.10;1.25;;;;;;;18.03;28.95;98044.16;5032259;28;20053;-66
2022/05/14 11:57:07;;;;;;;4.47;1.08;;;;;;;17.91;29.25;98041.84;5032605;28;20132;-66
2022/05/14 11:59:56;;;;;;;3.60;1.08;;;;;;;17.85;29.35;98055.56;5032505;28;20132;-67
2022/05/14 12:02:32;;;;;;;2.40;0.98;;;;;;;17.85;29.40;98049.13;5032189;28;20104;-67
2022/05/14 12:05:01;;;;;;;3.90;0.90;;;;;;;17.89;29.39;98041.47;5032487;28;20057;-66
2022/05/14 12:07:57;;;;;;;5.22;1.80;;;;;;;18.07;29.27;98045.72;5032229;28;20061;-69
2022/05/14 12:10:44;;;;;;;5.15;1.42;;;;;;;18.14;29.21;98039.19;5046130;28;20049;-66
2022/05/14 12:13:32;;;;;;;2.40;1.20;;;;;;;18.12;29.36;98044.44;5044555;28;20055;-66
2022/05/14 12:16:00;;;;;;;3.25;0.93;;;;;;;17.89;29.37;98045.06;5032391;28;20073;-66
2022/05/14 12:18:28;;;;;;;4.10;0.88;;;;;;;17.63;29.51;98047.75;5031913;28;20103;-66